createdAt,value
2017-12-10T00:01:05.687Z,12.87
2017-12-10T00:03:33.219Z,12.97
2017-12-10T00:06:00.748Z,12.07
2017-12-10T00:08:28.277Z,12.03
2017-12-10T00:10:55.878Z,12.87
2017-12-10T00:13:23.401Z,12.43
2017-12-10T00:15:50.981Z,11.93
2017-12-10T00:18:18.512Z,12.17
2017-12-10T00:20:46.043Z,11.80
2017-12-10T00:23:13.564Z,11.47
2017-12-10T00:25:41.092Z,12.60
2017-12-10T00:28:08.646Z,11.33
2017-12-10T00:30:36.240Z,11.67
2017-12-10T00:33:04.583Z,11.50
2017-12-10T00:35:32.176Z,12.07
2017-12-10T00:37:59.696Z,11.47
2017-12-10T00:40:27.210Z,12.63
2017-12-10T00:42:54.726Z,11.13
2017-12-10T00:45:22.255Z,12.10
2017-12-10T00:47:49.942Z,12.87
2017-12-10T00:50:17.488Z,11.83
2017-12-10T00:52:45.171Z,11.23
2017-12-10T00:55:13.069Z,10.97
2017-12-10T00:57:40.604Z,11.40
2017-12-10T01:00:08.137Z,12.87
2017-12-10T01:02:35.659Z,11.90
2017-12-10T01:05:03.185Z,12.20
2017-12-10T01:07:30.713Z,11.53
2017-12-10T01:09:58.259Z,12.00
2017-12-10T01:12:25.902Z,12.43
2017-12-10T01:14:53.420Z,12.23
2017-12-10T01:17:20.954Z,11.63
2017-12-10T01:19:48.480Z,11.93
2017-12-10T01:22:16.035Z,11.90
2017-12-10T01:24:43.559Z,13.00
2017-12-10T01:27:11.085Z,12.40
2017-12-10T01:29:38.716Z,11.67
2017-12-10T01:32:06.246Z,11.60
2017-12-10T01:34:33.769Z,12.37
2017-12-10T01:37:01.291Z,11.83
2017-12-10T01:39:28.817Z,11.67
2017-12-10T01:41:56.341Z,11.97
2017-12-10T01:44:23.854Z,11.30
2017-12-10T01:46:51.424Z,11.90
2017-12-10T01:49:18.950Z,10.93
2017-12-10T01:51:46.480Z,11.67
2017-12-10T01:54:14.016Z,12.10
2017-12-10T01:56:41.562Z,11.37
2017-12-10T01:59:09.095Z,11.77
2017-12-10T02:01:36.674Z,11.00
2017-12-10T02:04:04.204Z,11.13
2017-12-10T02:06:31.734Z,11.00
2017-12-10T02:08:59.268Z,11.20
2017-12-10T02:11:26.785Z,9.63
2017-12-10T02:13:54.310Z,9.53
2017-12-10T02:16:21.841Z,10.53
2017-12-10T02:18:49.371Z,9.33
2017-12-10T02:21:16.958Z,9.87
2017-12-10T02:23:44.476Z,9.23
2017-12-10T02:26:12.002Z,9.27
2017-12-10T02:28:39.514Z,8.93
2017-12-10T02:31:07.037Z,9.87
2017-12-10T02:33:34.584Z,8.53
2017-12-10T02:36:02.106Z,8.87
2017-12-10T02:38:29.617Z,7.93
2017-12-10T02:40:57.136Z,7.93
2017-12-10T02:43:24.684Z,7.90
2017-12-10T02:45:52.212Z,8.10
2017-12-10T02:48:19.743Z,8.57
2017-12-10T02:50:47.262Z,7.43
2017-12-10T02:53:14.774Z,7.37
2017-12-10T02:55:42.310Z,6.70
2017-12-10T02:58:09.822Z,7.23
2017-12-10T03:00:37.338Z,7.50
2017-12-10T03:03:04.866Z,6.97
2017-12-10T03:05:32.412Z,6.67
2017-12-10T03:07:59.944Z,6.03
2017-12-10T03:10:28.364Z,6.27
2017-12-10T03:12:55.895Z,6.40
2017-12-10T03:15:23.423Z,6.93
2017-12-10T03:17:51.055Z,6.13
2017-12-10T03:20:18.592Z,6.00
2017-12-10T03:22:46.103Z,6.47
2017-12-10T03:25:13.770Z,7.40
2017-12-10T03:27:41.268Z,6.40
2017-12-10T03:30:08.853Z,6.67
2017-12-10T03:32:36.403Z,5.87
2017-12-10T03:35:03.972Z,6.10
2017-12-10T03:37:31.513Z,5.43
2017-12-10T03:39:59.017Z,5.87
2017-12-10T03:42:26.542Z,5.87
2017-12-10T03:44:54.062Z,5.90
2017-12-10T03:47:21.585Z,5.23
2017-12-10T03:49:49.099Z,5.30
2017-12-10T03:52:16.623Z,5.43
2017-12-10T03:54:44.130Z,5.13
2017-12-10T03:57:11.641Z,4.67
2017-12-10T03:59:39.162Z,4.87
2017-12-10T04:02:06.668Z,4.83
2017-12-10T04:04:34.206Z,4.77
2017-12-10T04:07:01.723Z,4.37
2017-12-10T04:09:29.232Z,4.33
2017-12-10T04:11:56.845Z,4.43
2017-12-10T04:14:24.355Z,4.07
2017-12-10T04:16:51.870Z,3.90
2017-12-10T04:19:19.381Z,3.70
2017-12-10T04:21:46.901Z,3.87
2017-12-10T04:24:14.420Z,3.90
2017-12-10T04:26:41.931Z,3.80
2017-12-10T04:29:09.446Z,3.97
2017-12-10T04:31:36.960Z,3.63
2017-12-10T04:34:04.592Z,3.90
2017-12-10T04:36:32.111Z,3.33
2017-12-10T04:38:59.624Z,3.30
2017-12-10T04:41:27.130Z,3.80
2017-12-10T04:43:54.647Z,3.60
2017-12-10T04:46:22.285Z,3.97
2017-12-10T04:48:49.848Z,3.80
2017-12-10T04:51:17.372Z,3.10
2017-12-10T04:53:44.896Z,3.33
2017-12-10T04:56:12.410Z,3.73
2017-12-10T04:58:39.917Z,3.53
2017-12-10T05:01:07.441Z,3.40
2017-12-10T05:03:34.942Z,3.30
2017-12-10T05:06:02.462Z,3.77
2017-12-10T05:08:29.968Z,4.10
2017-12-10T05:10:57.480Z,3.83
2017-12-10T05:13:24.989Z,4.20
2017-12-10T05:15:52.510Z,3.73
2017-12-10T05:18:20.026Z,3.70
2017-12-10T05:20:47.533Z,4.10
2017-12-10T05:23:15.041Z,4.23
2017-12-10T05:25:42.566Z,4.23
2017-12-10T05:28:10.098Z,4.33
2017-12-10T05:30:37.654Z,4.40
2017-12-10T05:33:05.165Z,4.60
2017-12-10T05:35:32.682Z,4.70
2017-12-10T05:38:00.205Z,4.50
2017-12-10T05:40:27.719Z,4.77
2017-12-10T05:42:55.238Z,4.77
2017-12-10T05:45:22.781Z,4.63
2017-12-10T05:47:50.292Z,4.47
2017-12-10T05:50:17.812Z,4.83
2017-12-10T05:52:45.313Z,4.00
2017-12-10T05:55:12.843Z,4.20
2017-12-10T05:57:40.356Z,4.63
2017-12-10T06:00:07.864Z,3.90
2017-12-10T06:02:35.377Z,3.50
2017-12-10T06:05:02.893Z,3.73
2017-12-10T06:07:30.411Z,4.43
2017-12-10T06:09:57.920Z,4.03
2017-12-10T06:12:25.558Z,4.20
2017-12-10T06:14:53.113Z,4.47
2017-12-10T06:17:20.613Z,4.27
2017-12-10T06:19:48.244Z,3.60
2017-12-10T06:22:15.775Z,4.37
2017-12-10T06:24:43.290Z,3.93
2017-12-10T06:27:10.802Z,4.33
2017-12-10T06:29:38.309Z,3.63
2017-12-10T06:32:05.814Z,4.07
2017-12-10T06:34:33.390Z,4.23
2017-12-10T06:37:00.892Z,3.60
2017-12-10T06:39:28.397Z,4.43
2017-12-10T06:41:55.902Z,3.80
2017-12-10T06:44:23.413Z,3.87
2017-12-10T06:46:50.929Z,4.37
2017-12-10T06:49:18.542Z,4.00
2017-12-10T06:51:50.508Z,3.90
2017-12-10T06:54:18.085Z,4.17
2017-12-10T06:56:45.605Z,4.07
2017-12-10T06:59:13.121Z,4.17
2017-12-10T07:01:40.636Z,3.90
2017-12-10T07:04:08.213Z,3.93
2017-12-10T07:06:35.723Z,3.80
2017-12-10T07:09:03.253Z,4.20
2017-12-10T07:11:30.765Z,3.70
2017-12-10T07:13:58.270Z,3.87
2017-12-10T07:16:25.778Z,4.23
2017-12-10T07:18:53.295Z,3.83
2017-12-10T07:21:20.804Z,3.80
2017-12-10T07:23:48.309Z,4.10
2017-12-10T07:26:15.817Z,4.20
2017-12-10T07:28:43.339Z,3.77
2017-12-10T07:31:10.841Z,3.83
2017-12-10T07:33:38.340Z,3.37
2017-12-10T07:36:05.846Z,3.70
2017-12-10T07:38:33.360Z,3.73
2017-12-10T07:41:00.985Z,3.83
2017-12-10T07:43:28.490Z,3.53
2017-12-10T07:45:56.004Z,3.27
2017-12-10T07:48:23.518Z,3.63
2017-12-10T07:50:51.018Z,3.90
2017-12-10T07:53:18.526Z,3.40
2017-12-10T07:55:46.045Z,3.47
2017-12-10T07:58:13.566Z,3.57
2017-12-10T08:00:41.085Z,3.53
2017-12-10T08:03:08.595Z,3.87
2017-12-10T08:05:36.115Z,4.07
2017-12-10T08:08:03.741Z,3.83
2017-12-10T08:10:31.246Z,3.40
2017-12-10T08:12:58.745Z,3.63
2017-12-10T08:15:26.245Z,3.80
2017-12-10T08:17:53.760Z,4.23
2017-12-10T08:20:21.269Z,3.40
2017-12-10T08:22:48.795Z,3.90
2017-12-10T08:25:16.326Z,3.30
2017-12-10T08:27:43.838Z,3.70
2017-12-10T08:30:11.343Z,3.30
2017-12-10T08:32:38.854Z,3.67
2017-12-10T08:35:06.483Z,3.50
2017-12-10T08:37:34.000Z,3.57
2017-12-10T08:40:01.509Z,3.20
2017-12-10T08:42:29.029Z,3.30
2017-12-10T08:44:56.542Z,3.20
2017-12-10T08:47:24.060Z,3.50
2017-12-10T08:49:51.585Z,3.80
2017-12-10T08:52:19.346Z,3.57
2017-12-10T08:54:46.856Z,3.87
2017-12-10T08:57:14.371Z,3.00
2017-12-10T08:59:41.899Z,3.23
2017-12-10T09:02:09.408Z,3.57
2017-12-10T09:04:36.910Z,2.97
2017-12-10T09:07:04.438Z,3.10
2017-12-10T09:09:31.947Z,2.70
2017-12-10T09:11:59.470Z,3.57
2017-12-10T09:14:26.980Z,3.00
2017-12-10T09:16:54.514Z,2.80
2017-12-10T09:19:22.013Z,2.80
2017-12-10T09:21:49.523Z,2.77
2017-12-10T09:24:17.044Z,2.43
2017-12-10T09:26:44.624Z,2.60
2017-12-10T09:29:12.137Z,2.60
2017-12-10T09:31:39.659Z,2.33
2017-12-10T09:34:07.166Z,2.93
2017-12-10T09:36:34.673Z,2.53
2017-12-10T09:39:02.186Z,2.30
2017-12-10T09:41:29.716Z,2.50
2017-12-10T09:43:57.232Z,2.60
2017-12-10T09:46:24.739Z,2.70
2017-12-10T09:48:52.254Z,2.57
2017-12-10T09:51:19.771Z,2.33
2017-12-10T11:15:44.391Z,2.80
2017-12-10T11:18:11.947Z,3.00
2017-12-10T11:20:40.674Z,2.73
2017-12-10T11:23:08.181Z,2.40
2017-12-10T11:25:35.744Z,2.53
2017-12-10T11:28:03.402Z,3.07
2017-12-10T11:30:30.933Z,2.33
2017-12-10T11:32:58.459Z,2.93
2017-12-10T11:35:26.009Z,2.70
2017-12-10T11:37:53.523Z,2.90
2017-12-10T11:40:21.042Z,2.80
2017-12-10T11:42:48.669Z,3.13
2017-12-10T11:45:16.339Z,3.63
2017-12-10T11:47:43.862Z,3.33
2017-12-10T11:50:11.378Z,2.50
2017-12-10T11:52:38.887Z,2.60
2017-12-10T11:55:06.396Z,2.53
2017-12-10T11:57:33.930Z,2.80
2017-12-10T12:00:01.460Z,2.80
2017-12-10T12:02:29.019Z,3.20
2017-12-10T12:04:56.544Z,3.33
2017-12-10T12:07:24.174Z,3.07
2017-12-10T12:09:51.697Z,3.20
2017-12-10T12:12:19.270Z,2.87
2017-12-10T12:14:46.830Z,2.90
2017-12-10T12:17:14.338Z,2.80
2017-12-10T12:19:41.867Z,2.80
2017-12-10T12:22:09.373Z,3.40
2017-12-10T12:24:36.880Z,5.37
2017-12-10T12:27:04.425Z,3.33
2017-12-10T12:29:31.980Z,2.80
2017-12-10T12:31:59.529Z,2.80
2017-12-10T12:34:27.045Z,2.73
2017-12-10T12:36:54.560Z,2.80
2017-12-10T12:39:22.064Z,2.50
2017-12-10T12:41:49.566Z,2.87
2017-12-10T12:44:17.108Z,2.83
2017-12-10T12:46:44.697Z,2.57
2017-12-10T12:49:12.252Z,2.80
2017-12-10T12:51:39.762Z,2.70
2017-12-10T12:54:07.281Z,3.20
2017-12-10T12:56:34.792Z,3.10
2017-12-10T12:59:02.321Z,4.10
2017-12-10T13:04:09.914Z,3.43
2017-12-10T13:06:37.426Z,3.13
2017-12-10T13:09:04.939Z,3.40
2017-12-10T13:11:32.477Z,3.40
2017-12-10T13:13:59.982Z,3.50
2017-12-10T13:16:27.586Z,3.13
2017-12-10T13:18:55.102Z,2.90
2017-12-10T13:21:22.650Z,2.60
2017-12-10T13:23:50.165Z,2.97
2017-12-10T13:26:17.739Z,2.50
2017-12-10T13:28:45.305Z,2.93
2017-12-10T13:31:12.819Z,3.65
2017-12-10T13:33:41.005Z,3.17
2017-12-10T13:36:08.513Z,3.30
2017-12-10T13:38:36.022Z,3.70
2017-12-10T13:41:03.535Z,4.77
2017-12-10T13:43:31.039Z,4.40
2017-12-10T13:45:58.548Z,4.75
2017-12-10T13:48:26.046Z,4.57
2017-12-10T13:50:53.549Z,3.73
2017-12-10T13:53:21.061Z,4.17
2017-12-10T13:55:48.567Z,4.40
2017-12-10T13:58:16.087Z,4.10
2017-12-10T14:00:43.603Z,3.93
2017-12-10T14:03:11.106Z,3.57
2017-12-10T14:05:38.612Z,4.13
2017-12-10T14:08:06.125Z,4.20
2017-12-10T14:10:33.629Z,4.57
2017-12-10T14:13:01.131Z,4.40
2017-12-10T14:15:28.658Z,4.10
2017-12-10T14:17:56.177Z,3.90
2017-12-10T14:20:23.697Z,4.00
2017-12-10T14:22:51.198Z,3.93
2017-12-10T14:25:18.692Z,3.27
2017-12-10T14:27:46.196Z,3.77
2017-12-10T14:30:13.698Z,3.63
2017-12-10T14:32:41.206Z,3.43
2017-12-10T14:35:08.810Z,3.47
2017-12-10T14:37:36.318Z,4.53
2017-12-10T14:40:03.831Z,3.30
2017-12-10T14:42:31.346Z,3.00
2017-12-10T14:44:58.853Z,4.20
2017-12-10T14:47:26.349Z,4.10
2017-12-10T14:49:53.858Z,3.90
2017-12-10T14:52:21.358Z,3.60
2017-12-10T14:54:48.874Z,3.87
2017-12-10T14:57:16.371Z,3.40
2017-12-10T14:59:43.891Z,3.67
2017-12-10T15:02:11.396Z,3.40
2017-12-10T15:04:38.902Z,3.27
2017-12-10T15:07:06.410Z,3.50
2017-12-10T15:09:33.908Z,4.03
2017-12-10T15:12:01.423Z,3.97
2017-12-10T15:14:28.933Z,3.77
2017-12-10T15:16:56.438Z,3.00
2017-12-10T15:19:23.947Z,3.60
2017-12-10T15:21:51.459Z,3.50
2017-12-10T15:24:18.980Z,3.57
2017-12-10T15:26:46.483Z,3.87
2017-12-10T15:29:13.991Z,3.30
2017-12-10T15:31:41.502Z,3.67
2017-12-10T15:34:09.015Z,3.67
2017-12-10T15:36:36.517Z,3.90
2017-12-10T15:39:04.032Z,3.63
2017-12-10T15:41:31.564Z,4.20
2017-12-10T15:43:59.066Z,4.43
2017-12-10T15:46:26.582Z,3.50
2017-12-10T15:48:54.112Z,3.77
2017-12-10T15:51:21.655Z,4.00
2017-12-10T15:53:49.158Z,3.30
2017-12-10T15:56:16.661Z,3.83
2017-12-10T15:58:44.170Z,3.50
2017-12-10T16:01:11.678Z,4.07
2017-12-10T16:03:39.180Z,3.93
2017-12-10T16:06:06.684Z,3.93
2017-12-10T16:08:34.181Z,4.93
2017-12-10T16:11:01.711Z,4.33
2017-12-10T16:13:29.264Z,4.37
2017-12-10T16:15:56.794Z,4.13
2017-12-10T16:18:24.305Z,4.20
2017-12-10T16:20:51.826Z,4.10
2017-12-10T16:23:19.342Z,3.70
2017-12-10T16:25:46.855Z,4.30
2017-12-10T16:28:14.386Z,4.17
2017-12-10T16:30:41.902Z,4.07
2017-12-10T16:33:09.412Z,4.00
2017-12-10T16:35:36.919Z,3.90
2017-12-10T16:38:04.422Z,4.30
2017-12-10T16:40:31.930Z,3.70
2017-12-10T16:42:59.444Z,4.47
2017-12-10T16:45:26.961Z,4.10
2017-12-10T16:47:54.468Z,4.43
2017-12-10T16:50:21.977Z,4.47
2017-12-10T16:52:49.489Z,4.87
2017-12-10T16:55:17.014Z,4.53
2017-12-10T16:57:44.529Z,5.10
2017-12-10T17:00:12.040Z,5.20
2017-12-10T17:02:39.559Z,5.33
2017-12-10T17:05:07.057Z,4.90
2017-12-10T17:07:34.568Z,4.70
2017-12-10T17:10:02.079Z,5.20
2017-12-10T17:12:29.602Z,5.97
2017-12-10T17:14:57.122Z,5.63
2017-12-10T17:17:24.634Z,6.00
2017-12-10T17:19:52.139Z,5.83
2017-12-10T17:22:19.716Z,5.47
2017-12-10T17:24:47.234Z,5.30
2017-12-10T17:27:14.786Z,6.10
2017-12-10T17:29:42.311Z,6.37
2017-12-10T17:32:09.817Z,6.87
2017-12-10T17:34:37.334Z,6.17
2017-12-10T17:37:04.855Z,6.37
2017-12-10T17:39:32.392Z,6.43
2017-12-10T17:41:59.909Z,6.40
2017-12-10T17:44:27.416Z,6.80
2017-12-10T17:46:54.930Z,6.90
2017-12-10T17:49:22.437Z,7.13
2017-12-10T17:51:49.952Z,8.17
2017-12-10T17:54:17.472Z,7.23
2017-12-10T17:56:45.010Z,7.93
2017-12-10T17:59:12.524Z,7.83
2017-12-10T18:01:40.048Z,6.63
2017-12-10T18:04:07.557Z,7.70
2017-12-10T18:06:35.058Z,7.20
2017-12-10T18:09:02.570Z,7.03
2017-12-10T18:11:30.079Z,8.07
2017-12-10T18:13:57.588Z,9.17
2017-12-10T18:16:25.093Z,7.77
2017-12-10T18:18:52.606Z,7.53
2017-12-10T18:21:20.128Z,7.83
2017-12-10T18:23:47.642Z,8.07
2017-12-10T18:26:15.157Z,7.70
2017-12-10T18:28:42.678Z,7.83
2017-12-10T18:31:10.197Z,7.37
2017-12-10T18:33:37.791Z,7.47
2017-12-10T18:36:05.305Z,8.23
2017-12-10T18:38:32.814Z,6.73
2017-12-10T18:41:00.329Z,6.97
2017-12-10T18:43:27.844Z,6.63
2017-12-10T18:45:55.358Z,7.30
2017-12-10T18:48:22.866Z,7.53
2017-12-10T18:50:50.377Z,7.57
2017-12-10T18:53:18.174Z,6.77
2017-12-10T18:55:45.685Z,7.40
2017-12-10T18:58:14.078Z,7.00
2017-12-10T19:00:41.584Z,7.63
2017-12-10T19:03:09.263Z,7.60
2017-12-10T19:05:36.787Z,7.30
2017-12-10T19:08:04.314Z,7.40
2017-12-10T19:10:31.838Z,7.00
2017-12-10T19:12:59.354Z,7.53
2017-12-10T19:15:26.877Z,7.10
2017-12-10T19:17:54.923Z,6.17
2017-12-10T19:20:22.443Z,6.13
2017-12-10T19:22:49.965Z,5.70
2017-12-10T19:25:17.475Z,6.53
2017-12-10T19:27:44.991Z,7.10
2017-12-10T19:30:12.741Z,6.87
2017-12-10T19:32:40.258Z,5.60
2017-12-10T19:35:07.773Z,6.33
2017-12-10T19:37:35.278Z,6.57
2017-12-10T19:40:02.794Z,6.13
2017-12-10T19:42:30.306Z,6.30
2017-12-10T19:44:57.816Z,7.27
2017-12-10T19:47:25.628Z,6.87
2017-12-10T19:49:53.146Z,6.60
2017-12-10T19:52:20.661Z,6.50
2017-12-10T19:54:48.174Z,5.63
2017-12-10T19:57:15.697Z,5.73
2017-12-10T19:59:43.210Z,5.80
2017-12-10T20:02:11.385Z,5.53
2017-12-10T20:04:38.902Z,5.87
2017-12-10T20:07:06.417Z,6.90
2017-12-10T20:09:33.920Z,5.70
2017-12-10T20:12:01.435Z,5.87
2017-12-10T20:17:21.197Z,6.40
2017-12-10T20:19:48.724Z,5.67
2017-12-10T20:22:16.241Z,5.67
2017-12-10T20:24:43.889Z,6.50
2017-12-10T20:27:11.469Z,6.20
2017-12-10T20:29:38.998Z,5.90
2017-12-10T20:32:06.513Z,6.83
2017-12-10T20:34:34.030Z,6.57
2017-12-10T20:37:01.554Z,6.90
2017-12-10T20:39:29.074Z,6.83
2017-12-10T20:41:56.594Z,6.97
2017-12-10T20:44:24.214Z,6.40
2017-12-10T20:46:51.755Z,6.77
2017-12-10T20:49:19.274Z,6.67
2017-12-10T20:51:46.793Z,6.70
2017-12-10T20:54:14.315Z,6.23
2017-12-10T20:56:41.826Z,6.23
2017-12-10T20:59:09.353Z,6.60
2017-12-10T21:01:36.866Z,6.97
2017-12-10T21:04:04.391Z,7.63
2017-12-10T21:06:31.915Z,7.47
2017-12-10T21:08:59.438Z,7.70
2017-12-10T21:11:26.962Z,7.63
2017-12-10T21:13:54.489Z,7.03
2017-12-10T21:16:22.013Z,8.10
2017-12-10T21:18:49.533Z,7.33
2017-12-10T21:21:17.049Z,6.73
2017-12-10T21:23:44.582Z,7.33
2017-12-10T21:26:12.114Z,7.60
2017-12-10T21:28:39.640Z,8.97
2017-12-10T21:31:07.165Z,7.90
2017-12-10T21:33:34.686Z,7.67
2017-12-10T21:36:02.195Z,7.40
2017-12-10T21:38:29.704Z,7.43
2017-12-10T21:40:57.206Z,7.47
2017-12-10T21:43:24.749Z,7.53
2017-12-10T21:45:52.281Z,7.43
2017-12-10T21:48:19.812Z,6.97
2017-12-10T21:50:47.329Z,7.73
2017-12-10T21:53:14.885Z,7.20
2017-12-10T21:55:42.497Z,7.63
2017-12-10T21:58:10.023Z,7.70
2017-12-10T22:00:37.559Z,8.17
2017-12-10T22:03:05.057Z,7.47
2017-12-10T22:05:32.593Z,7.90
2017-12-10T22:08:00.122Z,7.50
2017-12-10T22:10:27.640Z,7.57
2017-12-10T22:12:55.150Z,7.47
2017-12-10T22:15:22.668Z,7.70
2017-12-10T22:17:50.180Z,6.87
2017-12-10T22:20:17.715Z,7.37
2017-12-10T22:22:45.231Z,7.70
2017-12-10T22:25:12.752Z,6.93
2017-12-10T22:27:40.264Z,7.37
2017-12-10T22:30:07.779Z,6.80
2017-12-10T22:32:35.293Z,6.70
2017-12-10T22:35:02.816Z,7.10
2017-12-10T22:37:30.333Z,6.87
2017-12-10T22:39:57.840Z,6.90
2017-12-10T22:42:25.386Z,7.40
2017-12-10T22:44:52.901Z,7.10
2017-12-10T22:47:20.432Z,7.13
2017-12-10T22:49:47.949Z,7.40
2017-12-10T22:52:15.488Z,7.37
2017-12-10T22:54:43.002Z,7.37
2017-12-10T22:57:10.513Z,7.50
2017-12-10T22:59:38.035Z,7.20
2017-12-10T23:02:05.558Z,7.13
2017-12-10T23:04:33.084Z,6.57
2017-12-10T23:07:00.590Z,7.13
2017-12-10T23:09:28.104Z,7.63
2017-12-10T23:11:55.613Z,7.03
2017-12-10T23:14:23.122Z,6.70
2017-12-10T23:16:50.640Z,7.07
2017-12-10T23:19:18.171Z,6.60
2017-12-10T23:21:45.690Z,6.30
2017-12-10T23:24:13.200Z,7.10
2017-12-10T23:26:40.708Z,6.77
2017-12-10T23:29:08.222Z,7.27
2017-12-10T23:31:35.738Z,7.73
2017-12-10T23:34:03.240Z,6.83
2017-12-10T23:36:30.754Z,6.97
2017-12-10T23:38:58.262Z,7.10
2017-12-10T23:41:25.766Z,6.97
2017-12-10T23:43:53.274Z,6.37
2017-12-10T23:46:20.791Z,6.60
2017-12-10T23:48:48.304Z,6.50
2017-12-10T23:51:15.827Z,7.17
2017-12-10T23:53:43.339Z,6.97
2017-12-10T23:56:10.853Z,6.90
2017-12-10T23:58:38.365Z,6.93
